Terminal Aerodrome Forecast
Issued by NWS Wilmington, NC

Home | Current Version | Previous Version | Text Only | Print | Product List | Glossary On
Versions: 1 2 3 4 5 6 7 8 9 10 11 12 13 14
258
FTUS42 KILM 090538
TAFMYR
TAF
KMYR 090538Z 0906/1006 26007G12KT P6SM BKN070
     FM091230 26015G25KT P6SM SCT050 BKN090
     FM091700 26018G29KT P6SM BKN045
     FM100100 25011G17KT P6SM OVC080
      AMD LTD TO CLD VIS AND WIND TIL 091100=

USA.gov is the U.S. government's official web portal to all federal, state and local government web resources and services.